Terminal Aerodrome Forecast
Issued by NWS

Current Version | Previous Version | Graphics & Text | Print | Product List | Glossary On
Versions: 1 2 3 4 5 6 7 8 9 10 11 12 13 14 15 16 17 18 19 20 21 22 23 24 25 26 27 28 29 30 31 32 33 34 35 36 37 38 39 40 41 42 43 44
139
FTUS41 KRNK 171124 CCC
TAFLWB
TAF COR
KLWB 171124Z 1711/1812 00000KT 3/4SM BR OVC001
     FM171400 00000KT P6SM SKC
     FM180900 00000KT 1/4SM FG OVC001=

USA.gov is the U.S. government's official web portal to all federal, state and local government web resources and services.